createdAt,value
2023-01-12T00:02:57.267Z,3.80
2023-01-12T00:07:00.324Z,3.75
2023-01-12T00:11:02.895Z,3.64
2023-01-12T00:15:05.431Z,3.67
2023-01-12T00:19:13.290Z,3.66
2023-01-12T00:23:15.413Z,3.74
2023-01-12T00:27:19.972Z,3.69
2023-01-12T00:31:22.718Z,3.75
2023-01-12T00:35:24.487Z,3.72
2023-01-12T00:39:26.543Z,3.87
2023-01-12T00:43:46.764Z,3.82
2023-01-12T00:47:49.003Z,3.77
2023-01-12T00:51:51.077Z,3.84
2023-01-12T00:55:53.147Z,3.82
2023-01-12T00:59:58.077Z,3.84
2023-01-12T01:04:00.934Z,3.85
2023-01-12T01:08:04.482Z,3.81
2023-01-12T01:12:06.607Z,3.79
2023-01-12T01:16:09.084Z,3.80
2023-01-12T01:20:12.479Z,3.84
2023-01-12T01:24:15.086Z,3.93
2023-01-12T01:28:17.754Z,3.94
2023-01-12T01:32:19.901Z,3.90
2023-01-12T01:36:22.036Z,3.89
2023-01-12T01:40:24.498Z,3.90
2023-01-12T01:44:29.703Z,3.95
2023-01-12T01:48:34.109Z,3.91
2023-01-12T01:52:41.457Z,3.99
2023-01-12T01:56:45.351Z,3.88
2023-01-12T02:00:47.499Z,3.85
2023-01-12T02:04:49.546Z,3.94
2023-01-12T02:08:57.515Z,3.80
2023-01-12T02:13:18.161Z,3.94
2023-01-12T02:17:53.676Z,4.02
2023-01-12T02:22:20.984Z,3.91
2023-01-12T02:26:38.198Z,4.05
2023-01-12T02:30:51.961Z,3.89
2023-01-12T02:35:34.970Z,4.04
2023-01-12T02:39:58.981Z,4.06
2023-01-12T02:44:02.567Z,4.01
2023-01-12T02:48:12.109Z,4.12
2023-01-12T02:52:17.864Z,4.07
2023-01-12T02:56:30.254Z,4.16
2023-01-12T03:00:35.596Z,4.13
2023-01-12T03:04:38.038Z,4.25
2023-01-12T03:08:40.294Z,4.19
2023-01-12T03:12:44.924Z,4.19
2023-01-12T03:16:46.788Z,4.19
2023-01-12T03:20:53.575Z,4.25
2023-01-12T03:24:59.046Z,4.24
2023-01-12T03:29:15.054Z,4.29
2023-01-12T03:33:17.445Z,4.30
2023-01-12T03:37:34.643Z,4.29
2023-01-12T03:41:41.837Z,4.25
2023-01-12T03:45:52.420Z,4.28
2023-01-12T03:49:57.832Z,4.29
2023-01-12T03:54:00.533Z,4.44
2023-01-12T03:58:02.736Z,4.40
2023-01-12T04:02:04.769Z,4.44
2023-01-12T04:06:08.263Z,4.39
2023-01-12T04:10:10.614Z,4.43
2023-01-12T04:14:12.577Z,4.47
2023-01-12T04:18:14.675Z,4.62
2023-01-12T04:22:35.496Z,4.76
2023-01-12T04:26:37.493Z,4.76
2023-01-12T04:30:39.623Z,4.81
2023-01-12T04:34:41.655Z,4.89
2023-01-12T04:38:43.394Z,4.91
2023-01-12T04:43:07.026Z,4.95
2023-01-12T04:47:10.972Z,4.97
2023-01-12T04:51:12.822Z,4.99
2023-01-12T04:55:14.831Z,5.02
2023-01-12T04:59:16.599Z,5.03
2023-01-12T05:03:18.660Z,5.00
2023-01-12T05:07:20.685Z,5.03
2023-01-12T05:11:28.436Z,5.08
2023-01-12T05:15:30.484Z,5.15
2023-01-12T05:19:32.467Z,5.18
2023-01-12T05:23:34.587Z,5.17
2023-01-12T05:27:36.535Z,5.19
2023-01-12T05:31:38.555Z,5.19
2023-01-12T05:35:40.499Z,5.24
2023-01-12T05:39:42.513Z,5.24
2023-01-12T05:43:50.253Z,5.25
2023-01-12T05:47:59.813Z,5.21
2023-01-12T05:52:01.861Z,5.28
2023-01-12T05:56:08.383Z,5.25
2023-01-12T06:00:10.861Z,5.25
2023-01-12T06:04:14.391Z,5.25
2023-01-12T06:08:16.441Z,5.24
2023-01-12T06:12:36.590Z,5.28
2023-01-12T06:16:40.941Z,5.37
2023-01-12T06:20:42.998Z,5.39
2023-01-12T06:24:48.945Z,5.31
2023-01-12T06:28:51.027Z,5.47
2023-01-12T06:32:53.105Z,5.49
2023-01-12T06:36:55.063Z,5.46
2023-01-12T06:41:08.790Z,5.47
2023-01-12T06:45:10.933Z,5.44
2023-01-12T06:49:12.905Z,5.48
2023-01-12T06:53:14.865Z,5.55
2023-01-12T06:57:17.144Z,5.64
2023-01-12T07:01:19.571Z,5.58
2023-01-12T07:05:21.583Z,5.78
2023-01-12T07:09:23.561Z,5.68
2023-01-12T07:13:25.439Z,5.69
2023-01-12T07:17:27.423Z,5.83
2023-01-12T07:21:29.493Z,5.97
2023-01-12T07:25:31.492Z,6.01
2023-01-12T07:29:33.441Z,6.11
2023-01-12T07:33:37.718Z,6.20
2023-01-12T07:37:39.696Z,6.35
2023-01-12T07:42:00.440Z,6.42
2023-01-12T07:46:02.609Z,6.52
2023-01-12T07:50:05.308Z,6.45
2023-01-12T07:54:07.345Z,6.55
2023-01-12T07:58:10.063Z,6.65
2023-01-12T08:02:16.591Z,6.68
2023-01-12T08:06:18.744Z,6.75
2023-01-12T08:10:20.974Z,6.80
2023-01-12T08:14:28.119Z,6.80
2023-01-12T08:18:59.717Z,6.90
2023-01-12T08:23:16.672Z,7.01
2023-01-12T08:27:23.070Z,6.97
2023-01-12T08:31:26.299Z,7.08
2023-01-12T08:35:32.296Z,6.85
2023-01-12T08:39:35.368Z,6.97
2023-01-12T08:43:55.944Z,6.95
2023-01-12T08:47:58.010Z,6.85
2023-01-12T08:52:00.012Z,6.99
2023-01-12T08:56:02.180Z,6.90
2023-01-12T09:00:05.165Z,6.94
2023-01-12T09:04:07.141Z,7.14
2023-01-12T09:08:08.826Z,7.16
2023-01-12T09:12:10.772Z,7.29
2023-01-12T09:16:16.314Z,7.39
2023-01-12T09:20:18.334Z,7.46
2023-01-12T09:24:20.581Z,7.47
2023-01-12T09:28:23.228Z,7.56
2023-01-12T09:32:29.147Z,7.75
2023-01-12T09:36:39.770Z,7.71
2023-01-12T09:40:43.121Z,7.58
2023-01-12T09:45:07.784Z,7.72
2023-01-12T09:49:09.911Z,7.76
2023-01-12T09:53:16.040Z,7.62
2023-01-12T09:57:55.440Z,7.65
2023-01-12T10:01:57.586Z,7.69
2023-01-12T10:06:02.950Z,7.84
2023-01-12T10:10:05.380Z,7.95
2023-01-12T10:14:37.501Z,8.06
2023-01-12T10:18:47.426Z,8.00
2023-01-12T10:22:54.581Z,8.16
2023-01-12T10:27:01.775Z,8.26
2023-01-12T10:31:04.427Z,8.30
2023-01-12T10:35:13.611Z,8.24
2023-01-12T10:39:38.578Z,8.36
2023-01-12T10:43:42.325Z,8.29
2023-01-12T10:47:45.868Z,8.49
2023-01-12T10:51:55.562Z,8.56
2023-01-12T10:55:59.070Z,8.73
2023-01-12T11:00:02.854Z,8.68
2023-01-12T11:04:05.568Z,8.63
2023-01-12T11:08:22.979Z,8.65
2023-01-12T11:12:34.497Z,9.02
2023-01-12T11:16:48.112Z,9.01
2023-01-12T11:21:00.053Z,9.10
2023-01-12T11:25:13.107Z,9.11
2023-01-12T11:29:39.945Z,9.06
2023-01-12T11:33:49.412Z,9.21
2023-01-12T11:37:55.473Z,9.26
2023-01-12T11:42:20.231Z,9.14
2023-01-12T11:46:40.543Z,9.14
2023-01-12T11:50:43.041Z,9.29
2023-01-12T11:54:45.087Z,9.19
2023-01-12T11:58:55.314Z,9.18
2023-01-12T12:03:20.377Z,9.31
2023-01-12T12:07:28.364Z,9.28
2023-01-12T12:11:42.222Z,9.15
2023-01-12T12:15:59.260Z,9.11
2023-01-12T12:20:12.477Z,8.92
2023-01-12T12:24:41.926Z,9.11
2023-01-12T12:29:03.019Z,9.20
2023-01-12T12:33:19.947Z,9.05
2023-01-12T12:37:40.090Z,9.16
2023-01-12T12:42:21.256Z,9.12
2023-01-12T12:46:49.610Z,8.91
2023-01-12T12:51:05.218Z,8.73
2023-01-12T12:55:12.224Z,8.57
2023-01-12T12:59:52.172Z,8.59
2023-01-12T13:03:58.973Z,8.79
2023-01-12T13:08:01.120Z,8.68
2023-01-12T13:12:02.774Z,8.51
2023-01-12T13:16:20.126Z,8.40
2023-01-12T13:20:34.518Z,8.45
2023-01-12T13:24:41.821Z,8.59
2023-01-12T13:28:43.531Z,8.62
2023-01-12T13:32:54.762Z,8.63
2023-01-12T13:37:31.530Z,8.57
2023-01-12T13:41:54.654Z,8.45
2023-01-12T13:46:01.804Z,8.36
2023-01-12T13:50:04.366Z,8.42
2023-01-12T13:54:10.496Z,8.25
2023-01-12T13:58:18.226Z,8.24
2023-01-12T14:02:20.418Z,8.18
2023-01-12T14:06:38.200Z,8.09
2023-01-12T14:10:53.647Z,8.05
2023-01-12T14:15:23.566Z,7.87
2023-01-12T14:19:28.105Z,7.84
2023-01-12T14:23:33.773Z,7.74
2023-01-12T14:27:35.762Z,7.72
2023-01-12T14:31:44.693Z,7.71
2023-01-12T14:35:48.821Z,7.57
2023-01-12T14:39:50.905Z,7.44
2023-01-12T14:44:12.020Z,7.36
2023-01-12T14:48:28.627Z,7.13
2023-01-12T14:52:32.949Z,7.12
2023-01-12T14:56:49.137Z,7.09
2023-01-12T15:00:51.293Z,7.01
2023-01-12T15:04:56.077Z,6.69
2023-01-12T15:09:02.929Z,6.64
2023-01-12T15:13:32.923Z,6.46
2023-01-12T15:17:53.485Z,6.34
2023-01-12T15:22:15.337Z,6.29
2023-01-12T15:26:18.137Z,6.24
2023-01-12T15:30:20.336Z,6.20
2023-01-12T15:34:22.283Z,6.24
2023-01-12T15:38:28.122Z,6.15
2023-01-12T15:42:30.034Z,6.20
2023-01-12T15:46:32.020Z,6.14
2023-01-12T15:50:37.596Z,6.14
2023-01-12T15:54:39.748Z,6.19
2023-01-12T15:58:41.778Z,6.26
2023-01-12T16:02:45.616Z,6.17
2023-01-12T16:06:49.069Z,6.03
2023-01-12T16:11:09.329Z,6.01
2023-01-12T16:15:20.282Z,5.99
2023-01-12T16:19:22.443Z,5.93
2023-01-12T16:23:24.456Z,5.92
2023-01-12T16:27:27.148Z,5.80
2023-01-12T16:31:29.261Z,5.82
2023-01-12T16:35:33.181Z,5.78
2023-01-12T16:39:35.071Z,5.69
2023-01-12T16:43:38.117Z,5.65
2023-01-12T16:47:40.124Z,5.67
2023-01-12T16:51:42.086Z,5.73
2023-01-12T16:55:44.021Z,5.71
2023-01-12T16:59:46.198Z,5.61
2023-01-12T17:03:49.078Z,5.51
2023-01-12T17:07:51.354Z,5.55
2023-01-12T17:11:54.919Z,5.55
2023-01-12T17:15:57.178Z,5.47
2023-01-12T17:19:59.645Z,5.43
2023-01-12T17:24:01.535Z,5.38
2023-01-12T17:28:03.528Z,5.41
2023-01-12T17:32:07.054Z,5.50
2023-01-12T17:36:11.645Z,5.44
2023-01-12T17:40:13.880Z,5.42
2023-01-12T17:44:16.181Z,5.45
2023-01-12T17:48:19.637Z,5.42
2023-01-12T17:52:22.056Z,5.49
2023-01-12T17:56:25.411Z,5.34
2023-01-12T18:00:27.547Z,5.57
2023-01-12T18:04:29.709Z,5.65
2023-01-12T18:08:31.905Z,5.56
2023-01-12T18:12:34.007Z,5.59
2023-01-12T18:16:36.257Z,5.50
2023-01-12T18:20:38.324Z,5.59
2023-01-12T18:24:40.481Z,5.54
2023-01-12T18:28:42.967Z,5.54
2023-01-12T18:32:45.359Z,5.54
2023-01-12T18:36:47.628Z,5.49
2023-01-12T18:41:09.680Z,5.45
2023-01-12T18:45:11.865Z,5.35
2023-01-12T18:49:13.869Z,5.39
2023-01-12T18:53:33.556Z,5.40
2023-01-12T18:57:35.604Z,5.48
2023-01-12T19:01:37.790Z,5.38
2023-01-12T19:05:53.262Z,5.47
2023-01-12T19:09:56.615Z,5.50
2023-01-12T19:14:16.849Z,5.54
2023-01-12T19:18:19.080Z,5.58
2023-01-12T19:22:39.863Z,5.53
2023-01-12T19:27:01.159Z,5.44
2023-01-12T19:31:06.547Z,5.40
2023-01-12T19:35:11.377Z,5.54
2023-01-12T19:39:13.956Z,5.67
2023-01-12T19:43:20.465Z,5.66
2023-01-12T19:47:22.286Z,5.65
2023-01-12T19:51:24.458Z,5.75
2023-01-12T19:55:26.842Z,5.92
2023-01-12T19:59:28.939Z,5.98
2023-01-12T20:03:31.098Z,6.06
2023-01-12T20:07:33.325Z,6.11
2023-01-12T20:11:35.342Z,6.06
2023-01-12T20:15:38.991Z,6.08
2023-01-12T20:19:41.141Z,6.16
2023-01-12T20:23:43.244Z,6.07
2023-01-12T20:27:49.124Z,6.11
2023-01-12T20:31:52.855Z,6.20
2023-01-12T20:35:55.266Z,6.18
2023-01-12T20:39:58.069Z,6.24
2023-01-12T20:44:00.198Z,6.33
2023-01-12T20:48:02.190Z,6.20
2023-01-12T20:52:04.219Z,6.16
2023-01-12T20:56:07.064Z,6.17
2023-01-12T21:00:14.437Z,6.23
2023-01-12T21:04:19.358Z,6.08
2023-01-12T21:08:21.385Z,6.21
2023-01-12T21:12:24.317Z,6.29
2023-01-12T21:16:28.498Z,6.22
2023-01-12T21:20:30.604Z,6.20
2023-01-12T21:24:32.309Z,6.22
2023-01-12T21:28:37.060Z,6.21
2023-01-12T21:32:39.302Z,6.14
2023-01-12T21:36:41.405Z,6.28
2023-01-12T21:40:43.329Z,6.24
2023-01-12T21:44:45.533Z,6.18
2023-01-12T21:48:47.551Z,6.25
2023-01-12T21:52:49.560Z,6.24
2023-01-12T21:56:51.546Z,6.24
2023-01-12T22:00:53.956Z,6.17
2023-01-12T22:04:55.974Z,6.18
2023-01-12T22:08:58.732Z,6.24
2023-01-12T22:13:02.722Z,6.26
2023-01-12T22:17:04.666Z,6.13
2023-01-12T22:21:08.802Z,6.05
2023-01-12T22:25:13.040Z,5.87
2023-01-12T22:29:15.136Z,5.82
2023-01-12T22:33:17.295Z,5.79
2023-01-12T22:37:19.200Z,5.75
2023-01-12T22:41:22.541Z,5.70
2023-01-12T22:45:24.638Z,5.84
2023-01-12T22:49:26.622Z,5.84
2023-01-12T22:53:28.603Z,5.81
2023-01-12T22:57:30.853Z,5.83
2023-01-12T23:01:33.401Z,5.81
2023-01-12T23:05:42.791Z,5.88
2023-01-12T23:09:44.466Z,5.88
2023-01-12T23:13:46.885Z,5.99
2023-01-12T23:17:48.845Z,5.97
2023-01-12T23:21:50.567Z,5.88
2023-01-12T23:25:52.544Z,5.93
2023-01-12T23:29:54.202Z,5.99
2023-01-12T23:33:59.430Z,6.05
2023-01-12T23:38:01.612Z,5.97
2023-01-12T23:42:03.542Z,6.01
2023-01-12T23:46:05.799Z,5.97
2023-01-12T23:50:08.524Z,6.02
2023-01-12T23:54:16.383Z,5.92
2023-01-12T23:58:18.913Z,6.00
